Kirkeholmen — 3FIV4 — position and weather

sailwx.info

Track history (hours):
 
Tides and Currents Weather Stations Pressure Air Temp Water Temp Dewpoint Dewpoint Depression Visibility Wind Speed Wind Dir Waves Ship Positions

Kirkeholmen

Last reported at 2017-Dec-11 16:51 UTC. Time now 2017-Dec-12 06:34 UTC.
Position N 48°31' W 122°35'.

Length 144 m; draft 7.2 m.

Type: Ship. MMSI: 355320000.

Date/timePositionNaut miles runAvg speedWind from/ knotsBaromVisibWave heightAir tempDewpointWater temp
2017-Dec-11 16:51N 48°31' W 122°35'0 0.0
2017-Dec-11 16:27N 48°31' W 122°35'0 0.0
2017-Dec-11 15:57N 48°31' W 122°35'0 0.0
2017-Dec-11 15:27N 48°31' W 122°35'0 0.0
2017-Dec-11 14:57N 48°31' W 122°35'0 0.0
2017-Dec-11 14:27N 48°31' W 122°35'0 0.0
2017-Dec-11 13:57N 48°31' W 122°35'0 0.0
2017-Dec-11 13:21N 48°31' W 122°35'0 0.0
2017-Dec-11 12:57N 48°31' W 122°35'0 0.0
2017-Dec-11 12:15N 48°31' W 122°35'0 0.0
2017-Dec-11 11:57N 48°31' W 122°35'0 0.0
2017-Dec-11 11:27N 48°31' W 122°35'0 0.0
2017-Dec-11 10:51N 48°31' W 122°35'0 0.0
2017-Dec-11 10:21N 48°31' W 122°35'0 0.0
2017-Dec-11 09:51N 48°31' W 122°35'0 0.0
2017-Dec-11 09:21N 48°31' W 122°35'0 0.0
2017-Dec-11 08:51N 48°31' W 122°35'0 0.0
2017-Dec-11 08:21N 48°31' W 122°35'0 0.0
2017-Dec-11 07:03N 48°31' W 122°35'0 0.0
2017-Dec-11 06:45N 48°31' W 122°35'0 0.0
2017-Dec-11 06:27N 48°31' W 122°35'0 0.0
2017-Dec-11 05:57N 48°31' W 122°35'0 0.0
2017-Dec-11 05:21N 48°31' W 122°35'0 0.0
2017-Dec-11 04:57N 48°31' W 122°35'0 0.0
2017-Dec-11 04:27N 48°31' W 122°35'0 0.0
2017-Dec-11 03:57N 48°31' W 122°35'0 0.0
2017-Dec-11 03:27N 48°31' W 122°35'0 0.0
2017-Dec-11 02:57N 48°31' W 122°35'0 0.0
2017-Dec-11 02:27N 48°31' W 122°35'0 0.0
2017-Dec-11 02:00N 48°31' W 122°35'1 2.9
2017-Dec-11 01:30N 48°32' W 122°34'4 8.1
2017-Dec-11 01:00N 48°36' W 122°35'612.2
2017-Dec-11 00:31N 48°40' W 122°42'714.1
2017-Dec-11 00:00N 48°45' W 122°49'713.7
2017-Dec-10 23:30N 48°49' W 122°58'714.1
2017-Dec-10 23:00N 48°53' W 123°06'714.6
2017-Dec-10 22:30N 48°58' W 123°15'713.8
2017-Dec-10 22:00N 49°02' W 123°23'713.6
2017-Dec-10 21:29N 49°10' W 123°23'613.4
2017-Dec-10 21:00N 49°16' W 123°20'612.1
2017-Dec-10 20:30N 49°19' W 123°13'510.8
2017-Dec-10 20:00N 49°18' W 123°05'4 7.4
2017-Dec-10 19:30N 49°18' W 122°59'1 1.7
2017-Dec-10 18:59N 49°17' W 122°58'0 0.0
2017-Dec-10 18:05N 49°17' W 122°58'0 0.0
2017-Dec-10 17:47N 49°17' W 122°58'0 0.0
2017-Dec-10 17:29N 49°17' W 122°58'0 0.0
2017-Dec-10 16:59N 49°17' W 122°58'0 0.0
2017-Dec-10 16:23N 49°17' W 122°58'0 0.0
2017-Dec-10 15:59N 49°17' W 122°58'0 0.0
2017-Dec-10 15:29N 49°17' W 122°58'0 0.0
2017-Dec-10 10:41N 49°17' W 122°58'0 0.0
2017-Dec-10 10:17N 49°17' W 122°58'0 0.0
2017-Dec-10 09:47N 49°17' W 122°58'0 0.0
2017-Dec-10 09:17N 49°17' W 122°58'0 0.0
2017-Dec-10 08:59N 49°17' W 122°58'0 0.0
2017-Dec-10 08:29N 49°17' W 122°58'0 0.0
2017-Dec-10 07:59N 49°17' W 122°58'0 0.0
2017-Dec-10 07:29N 49°17' W 122°58'0 0.0
2017-Dec-10 06:59N 49°17' W 122°58'0 0.0
2017-Dec-10 05:53N 49°17' W 122°58'0 0.0
2017-Dec-10 05:29N 49°17' W 122°58'0 0.0
2017-Dec-10 04:59N 49°17' W 122°58'0 0.0
2017-Dec-10 04:23N 49°17' W 122°58'0 0.0
2017-Dec-10 03:59N 49°17' W 122°58'0 0.0
2017-Dec-10 03:17N 49°17' W 122°58'0 0.0
2017-Dec-10 02:47N 49°17' W 122°58'0 0.0
2017-Dec-10 02:29N 49°17' W 122°58'0 0.1
2017-Dec-10 02:00N 49°17' W 122°58'1 2.7
2017-Dec-10 01:30N 49°18' W 122°60'2 4.6
2017-Dec-10 01:00N 49°18' W 123°03'1 1.2
2017-Dec-10 00:29N 49°18' W 123°04'0 0.0
2017-Dec-09 23:59N 49°18' W 123°04'0 0.0
2017-Dec-09 23:29N 49°18' W 123°04'0 0.0
2017-Dec-09 22:59N 49°18' W 123°04'0 0.0
2017-Dec-09 22:29N 49°18' W 123°04'0 0.0
2017-Dec-09 21:59N 49°18' W 123°04'0 0.0
2017-Dec-09 21:29N 49°18' W 123°04'0 0.0
2017-Dec-09 20:59N 49°18' W 123°04'0 0.1
2017-Dec-09 20:30N 49°18' W 123°04'2 3.2
2017-Dec-09 20:00N 49°18' W 123°07'4 7.2
2017-Dec-09 19:30N 49°19' W 123°12'1 1.5
2017-Dec-09 19:00N 49°19' W 123°13'1 1.9
2017-Dec-09 18:30N 49°19' W 123°12'1 2.9
2017-Dec-09 18:00N 49°19' W 123°14'3 5.5
2017-Dec-09 17:30N 49°17' W 123°18'4 8.9
2017-Dec-09 17:00N 49°13' W 123°19'5 9.3
2017-Dec-09 16:30N 49°08' W 123°20'4 8.6
2017-Dec-09 16:00N 49°04' W 123°20'5 9.4
2017-Dec-09 15:30N 49°01' W 123°15'611.9
2017-Dec-09 15:00N 48°57' W 123°09'712.8
2017-Dec-09 14:30N 48°53' W 123°01'713.2
2017-Dec-09 14:00N 48°49' W 122°53'713.2
2017-Dec-09 13:30N 48°45' W 122°45'612.9
2017-Dec-09 13:00N 48°39' W 122°40'510.7
2017-Dec-09 12:30N 48°35' W 122°35'4 7.3
2017-Dec-09 12:00N 48°31' W 122°35'0 0.5
2017-Dec-09 11:27N 48°31' W 122°35'0 0.0
2017-Dec-09 10:57N 48°31' W 122°35'0 0.0
2017-Dec-09 10:27N 48°31' W 122°35'0 0.0
2017-Dec-09 09:57N 48°31' W 122°35'0 0.0
2017-Dec-09 09:27N 48°31' W 122°35'0 0.0
2017-Dec-09 08:57N 48°31' W 122°35'0 0.0
2017-Dec-09 08:27N 48°31' W 122°35'0 0.0
2017-Dec-09 07:57N 48°31' W 122°35'0 0.0
2017-Dec-09 07:27N 48°31' W 122°35'0 0.0
2017-Dec-09 07:00N 48°31' W 122°35'0 0.0
2017-Dec-09 06:27N 48°31' W 122°35'0 0.0
2017-Dec-09 05:57N 48°31' W 122°35'0 0.0
2017-Dec-09 05:27N 48°31' W 122°35'0 0.0
2017-Dec-09 04:57N 48°31' W 122°35'0 0.0
2017-Dec-09 04:27N 48°31' W 122°35'0 0.0
2017-Dec-09 03:57N 48°31' W 122°35'0 0.1
2017-Dec-09 03:21N 48°31' W 122°35'0 0.1
2017-Dec-09 02:51N 48°31' W 122°35'0 0.1
2017-Dec-09 02:27N 48°31' W 122°35'0 0.0
2017-Dec-09 01:57N 48°31' W 122°35'0 0.1
2017-Dec-09 01:21N 48°31' W 122°35'0 0.0
2017-Dec-09 00:57N 48°31' W 122°35'0 0.1
2017-Dec-09 00:30N 48°31' W 122°35'1 1.0
2017-Dec-08 23:56N 48°31' W 122°35'0 0.0
2017-Dec-08 23:26N 48°31' W 122°35'0 0.0
2017-Dec-08 22:56N 48°31' W 122°35'0 0.0
2017-Dec-08 22:26N 48°31' W 122°35'0 0.0
2017-Dec-08 21:56N 48°31' W 122°35'0 0.0
2017-Dec-08 21:26N 48°31' W 122°35'0 0.0
2017-Dec-08 20:56N 48°31' W 122°35'0 0.0
2017-Dec-08 20:26N 48°31' W 122°35'0 0.0
2017-Dec-08 19:56N 48°31' W 122°35'0 0.0
2017-Dec-08 19:26N 48°31' W 122°35'0 0.0
2017-Dec-08 18:56N 48°31' W 122°35'0 0.0
2017-Dec-08 18:26N 48°31' W 122°35'0 0.0
2017-Dec-08 17:56N 48°31' W 122°35'0 0.0
2017-Dec-08 17:20N 48°31' W 122°35'0 0.0
2017-Dec-08 16:50N 48°31' W 122°35'0 0.0
2017-Dec-08 16:26N 48°31' W 122°35'0 0.0
2017-Dec-08 15:56N 48°31' W 122°35'0 0.0
2017-Dec-08 15:26N 48°31' W 122°35'0 0.0
2017-Dec-08 14:56N 48°31' W 122°35'0 0.0
2017-Dec-08 14:26N 48°31' W 122°35'0 0.0
2017-Dec-08 13:56N 48°31' W 122°35'0 0.0
2017-Dec-08 13:20N 48°31' W 122°35'0 0.0
2017-Dec-08 12:56N 48°31' W 122°35'0 0.0
2017-Dec-08 12:26N 48°31' W 122°35'0 0.0
2017-Dec-08 11:56N 48°31' W 122°35'0 0.0
2017-Dec-08 11:26N 48°31' W 122°35'0 0.0
2017-Dec-08 10:56N 48°31' W 122°35'0 0.0
2017-Dec-08 10:26N 48°31' W 122°35'0 0.0
2017-Dec-08 09:56N 48°31' W 122°35'0 0.0
2017-Dec-08 09:26N 48°31' W 122°35'0 0.0
2017-Dec-08 08:56N 48°31' W 122°35'0 0.0
2017-Dec-08 08:26N 48°31' W 122°35'0 0.0
2017-Dec-08 07:56N 48°31' W 122°35'0 0.0
2017-Dec-08 07:26N 48°31' W 122°35'0 0.0
2017-Dec-08 06:56N 48°31' W 122°35'0 0.0
2017-Dec-08 06:26N 48°31' W 122°35'0 0.0
2017-Dec-08 05:56N 48°31' W 122°35'0 0.0
2017-Dec-08 05:20N 48°31' W 122°35'0 0.0
2017-Dec-08 04:56N 48°31' W 122°35'0 0.0
2017-Dec-08 04:26N 48°31' W 122°35'0 0.0
2017-Dec-08 04:01N 48°31' W 122°35'1 1.3
2017-Dec-08 03:30N 48°31' W 122°35'0 0.1
2017-Dec-08 03:00N 48°31' W 122°35'0 0.1
2017-Dec-08 02:21N 48°31' W 122°35'0 0.0
2017-Dec-08 02:00N 48°31' W 122°35'0 0.0
2017-Dec-08 01:30N 48°31' W 122°35'0 0.1
2017-Dec-08 01:00N 48°31' W 122°35'0 0.0
2017-Dec-08 00:30N 48°31' W 122°35'0 0.1
2017-Dec-08 00:00N 48°31' W 122°35'0 0.1
2017-Dec-07 23:30N 48°31' W 122°35'0 0.0
2017-Dec-07 22:54N 48°31' W 122°35'0 0.0
2017-Dec-07 22:30N 48°31' W 122°35'0 0.0
2017-Dec-07 21:48N 48°31' W 122°35'0 0.0
2017-Dec-07 21:30N 48°31' W 122°35'0 0.0
2017-Dec-07 21:00N 48°31' W 122°35'0 0.0
2017-Dec-07 20:18N 48°31' W 122°35'0 0.1
2017-Dec-07 20:00N 48°31' W 122°35'0 0.0
2017-Dec-07 19:30N 48°31' W 122°35'0 0.1
2017-Dec-07 19:00N 48°31' W 122°35'0 0.1
2017-Dec-07 18:30N 48°31' W 122°35'0 0.1
2017-Dec-07 18:00N 48°31' W 122°35'0 0.1
2017-Dec-07 17:24N 48°31' W 122°35'0 0.0
2017-Dec-07 17:00N 48°31' W 122°35'0 0.0
2017-Dec-07 16:30N 48°31' W 122°35'0 0.0
2017-Dec-07 16:00N 48°31' W 122°35'0 0.0
2017-Dec-07 15:24N 48°31' W 122°35'0 0.0
2017-Dec-07 15:00N 48°31' W 122°35'0 0.1
2017-Dec-07 14:30N 48°31' W 122°35'0 0.1
2017-Dec-07 14:00N 48°31' W 122°35'0 0.2
2017-Dec-07 13:30N 48°31' W 122°35'0 0.2
2017-Dec-07 13:00N 48°31' W 122°35'0 0.1
2017-Dec-07 12:24N 48°31' W 122°35'0 0.1
2017-Dec-07 12:00N 48°31' W 122°35'0 0.0
2017-Dec-07 11:30N 48°31' W 122°35'0 0.0
2017-Dec-07 11:00N 48°31' W 122°35'0 0.0
2017-Dec-07 10:30N 48°31' W 122°35'0 0.0
2017-Dec-07 10:00N 48°31' W 122°35'0 0.2
2017-Dec-07 09:30N 48°31' W 122°35'0 0.0
2017-Dec-07 09:00N 48°31' W 122°35'0 0.1
2017-Dec-07 08:30N 48°31' W 122°35'0 0.0
2017-Dec-07 08:00N 48°31' W 122°35'0 0.0
2017-Dec-07 07:30N 48°31' W 122°35'0 0.0
2017-Dec-07 07:00N 48°31' W 122°35'0 0.0
2017-Dec-07 06:30N 48°31' W 122°35'0 0.0
2017-Dec-07 06:00N 48°31' W 122°35'0 0.0
2017-Dec-07 05:30N 48°31' W 122°35'0 0.0
2017-Dec-07 05:00N 48°31' W 122°35'0 0.0
2017-Dec-07 04:18N 48°31' W 122°35'0 0.4
2017-Dec-07 04:00N 48°31' W 122°35'1 1.0
2017-Dec-07 03:30N 48°32' W 122°34'5 9.0
2017-Dec-07 03:00N 48°36' W 122°35'612.5
2017-Dec-07 02:30N 48°40' W 122°43'714.5
2017-Dec-07 02:00N 48°46' W 122°49'714.8
2017-Dec-07 01:30N 48°49' W 122°59'714.3
2017-Dec-07 01:01N 48°54' W 123°08'714.1
2017-Dec-07 00:30N 48°59' W 123°16'713.8
2017-Dec-07 00:00N 49°03' W 123°23'713.6
2017-Dec-06 23:30N 49°10' W 123°22'713.7
2017-Dec-06 23:00N 49°17' W 123°20'612.5
2017-Dec-06 22:30N 49°19' W 123°11'5 9.5
2017-Dec-06 22:01N 49°18' W 123°04'3 6.5
2017-Dec-06 21:30N 49°18' W 122°59'1 1.5
2017-Dec-06 21:00N 49°18' W 122°58'  
2017-Dec-04 09:33N 48°31' W 122°35'0 0.0
2017-Dec-04 09:27N 48°31' W 122°35'0 0.0
2017-Dec-04 08:57N 48°31' W 122°35'0 0.0
2017-Dec-04 07:15N 48°31' W 122°35'0 0.0
2017-Dec-04 06:57N 48°31' W 122°35'0 0.0
2017-Dec-04 06:27N 48°31' W 122°35'0 0.0
2017-Dec-04 05:57N 48°31' W 122°35'0 0.0
2017-Dec-04 05:15N 48°31' W 122°35'0 0.0
2017-Dec-04 04:57N 48°31' W 122°35'0 0.0
2017-Dec-04 04:27N 48°31' W 122°35'0 0.0
2017-Dec-04 03:51N 48°31' W 122°35'0 0.0
2017-Dec-04 03:27N 48°31' W 122°35'0 0.0
2017-Dec-04 02:57N 48°31' W 122°35'0 0.0
2017-Dec-04 02:15N 48°31' W 122°35'0 0.0
2017-Dec-04 01:57N 48°31' W 122°35'0 0.0
2017-Dec-04 01:27N 48°31' W 122°35'0 0.0
2017-Dec-04 00:57N 48°31' W 122°35'0 0.0
2017-Dec-04 00:21N 48°31' W 122°35'0 0.0
2017-Dec-03 23:57N 48°31' W 122°35'0 0.0
2017-Dec-03 23:27N 48°31' W 122°35'0 0.0
2017-Dec-03 22:57N 48°31' W 122°35'0 0.0
2017-Dec-03 22:27N 48°31' W 122°35'0 0.0
2017-Dec-03 21:51N 48°31' W 122°35'0 0.0
2017-Dec-03 21:27N 48°31' W 122°35'0 0.0
2017-Dec-03 20:57N 48°31' W 122°35'0 0.0
2017-Dec-03 20:27N 48°31' W 122°35'0 0.0
2017-Dec-03 19:57N 48°31' W 122°35'0 0.0
2017-Dec-03 19:27N 48°31' W 122°35'0 0.0
2017-Dec-03 18:57N 48°31' W 122°35'0 0.0
2017-Dec-03 18:27N 48°31' W 122°35'0 0.0
2017-Dec-03 17:57N 48°31' W 122°35'0 0.0
2017-Dec-03 17:27N 48°31' W 122°35'0 0.0
2017-Dec-03 16:51N 48°31' W 122°35'0 0.0
2017-Dec-03 16:03N 48°31' W 122°35'0 0.0
2017-Dec-03 15:39N 48°31' W 122°35'0 0.0
2017-Dec-03 15:21N 48°31' W 122°35'0 0.0
2017-Dec-03 14:57N 48°31' W 122°35'0 0.0
2017-Dec-03 14:27N 48°31' W 122°35'0 0.2
2017-Dec-03 14:00N 48°31' W 122°35'2 3.5
2017-Dec-03 13:31N 48°32' W 122°34'5 9.1
2017-Dec-03 13:01N 48°37' W 122°35'612.5
2017-Dec-03 12:31N 48°40' W 122°43'510.6
2017-Dec-03 12:00N 48°45' W 122°48'612.7
2017-Dec-03 11:30N 48°48' W 122°56'612.3
2017-Dec-03 11:00N 48°52' W 123°03'612.3
2017-Dec-03 10:30N 48°56' W 123°10'713.0
2017-Dec-03 10:00N 49°00' W 123°18'612.7
2017-Dec-03 09:30N 49°05' W 123°23'713.9
2017-Dec-03 09:00N 49°12' W 123°21'713.6
2017-Dec-03 08:30N 49°19' W 123°17'612.1
2017-Dec-03 08:00N 49°19' W 123°08'4 7.9
2017-Dec-03 07:30N 49°18' W 123°02'2 4.6
2017-Dec-03 07:01N 49°18' W 122°59'0 0.4
2017-Dec-03 06:14N 49°18' W 122°58'0 0.1
2017-Dec-03 05:59N 49°18' W 122°58'0 0.1
2017-Dec-03 05:20N 49°18' W 122°58'0 0.1
2017-Dec-03 04:59N 49°18' W 122°58'0 0.0
2017-Dec-03 04:29N 49°18' W 122°58'0 0.0
2017-Dec-03 03:53N 49°18' W 122°58'0 0.0
2017-Dec-03 03:17N 49°18' W 122°58'0 0.0
2017-Dec-03 02:53N 49°18' W 122°58'0 0.0
2017-Dec-03 02:29N 49°18' W 122°58'0 0.0
2017-Dec-03 01:56N 49°18' W 122°58'0 0.0
2017-Dec-03 01:29N 49°18' W 122°58'0 0.0
2017-Dec-03 00:47N 49°18' W 122°58'0 0.2
2017-Dec-03 00:23N 49°18' W 122°58'0 0.0
2017-Dec-02 14:29N 49°17' W 122°58'0 0.0
2017-Dec-02 08:23N 49°17' W 122°58'0 0.0
2017-Dec-02 07:59N 49°17' W 122°58'0 0.0
2017-Dec-02 07:23N 49°17' W 122°58'0 0.0
2017-Dec-02 06:59N 49°17' W 122°58'0 0.0
2017-Dec-02 05:47N 49°17' W 122°58'0 0.0
2017-Dec-02 02:05N 49°17' W 122°58'0 0.1
2017-Dec-02 02:00N 49°17' W 122°58'0 0.6
2017-Dec-02 01:24N 49°18' W 122°58'0 0.0
2017-Dec-02 01:00N 49°18' W 122°58'0 0.0
2017-Dec-02 00:30N 49°18' W 122°58'0 0.1
2017-Dec-01 23:54N 49°18' W 122°58'1 1.7
2017-Dec-01 23:30N 49°18' W 122°59'3 5.2
2017-Dec-01 23:00N 49°18' W 123°03'4 7.2
2017-Dec-01 22:30N 49°19' W 123°08'4 7.3
2017-Dec-01 22:00N 49°18' W 123°14'4 7.5
2017-Dec-01 21:30N 49°16' W 123°19'3 6.3
2017-Dec-01 21:01N 49°13' W 123°20'4 7.7
2017-Dec-01 20:30N 49°09' W 123°21'4 7.4
2017-Dec-01 20:00N 49°06' W 123°22'510.3
2017-Dec-01 19:30N 49°02' W 123°17'612.6
2017-Dec-01 19:00N 48°57' W 123°10'612.7
2017-Dec-01 18:30N 48°54' W 123°03'612.4
2017-Dec-01 18:00N 48°49' W 122°55'713.0
2017-Dec-01 17:30N 48°46' W 122°47'613.3
2017-Dec-01 17:00N 48°40' W 122°42'  
Track history (hours):
 
Tides and Currents Weather Stations Pressure Air Temp Water Temp Dewpoint Dewpoint Depression Visibility Wind Speed Wind Dir Waves Ship Positions

Kirkeholmen

Last reported at 2017-Dec-11 16:51 UTC. Time now 2017-Dec-12 06:34 UTC.
Position N 48°31' W 122°35'.

Length 144 m; draft 7.2 m.

Type: Ship. MMSI: 355320000.

Date/timePositionNaut miles runAvg speedWind from/ knotsBaromVisibWave heightAir tempDewpointWater temp
2017-Dec-11 16:51N 48°31' W 122°35'0 0.0
2017-Dec-11 16:27N 48°31' W 122°35'0 0.0
2017-Dec-11 15:57N 48°31' W 122°35'0 0.0
2017-Dec-11 15:27N 48°31' W 122°35'0 0.0
2017-Dec-11 14:57N 48°31' W 122°35'0 0.0
2017-Dec-11 14:27N 48°31' W 122°35'0 0.0
2017-Dec-11 13:57N 48°31' W 122°35'0 0.0
2017-Dec-11 13:21N 48°31' W 122°35'0 0.0
2017-Dec-11 12:57N 48°31' W 122°35'0 0.0
2017-Dec-11 12:15N 48°31' W 122°35'0 0.0
2017-Dec-11 11:57N 48°31' W 122°35'0 0.0
2017-Dec-11 11:27N 48°31' W 122°35'0 0.0
2017-Dec-11 10:51N 48°31' W 122°35'0 0.0
2017-Dec-11 10:21N 48°31' W 122°35'0 0.0
2017-Dec-11 09:51N 48°31' W 122°35'0 0.0
2017-Dec-11 09:21N 48°31' W 122°35'0 0.0
2017-Dec-11 08:51N 48°31' W 122°35'0 0.0
2017-Dec-11 08:21N 48°31' W 122°35'0 0.0
2017-Dec-11 07:03N 48°31' W 122°35'0 0.0
2017-Dec-11 06:45N 48°31' W 122°35'0 0.0
2017-Dec-11 06:27N 48°31' W 122°35'0 0.0
2017-Dec-11 05:57N 48°31' W 122°35'0 0.0
2017-Dec-11 05:21N 48°31' W 122°35'0 0.0
2017-Dec-11 04:57N 48°31' W 122°35'0 0.0
2017-Dec-11 04:27N 48°31' W 122°35'0 0.0
2017-Dec-11 03:57N 48°31' W 122°35'0 0.0
2017-Dec-11 03:27N 48°31' W 122°35'0 0.0
2017-Dec-11 02:57N 48°31' W 122°35'0 0.0
2017-Dec-11 02:27N 48°31' W 122°35'0 0.0
2017-Dec-11 02:00N 48°31' W 122°35'1 2.9
2017-Dec-11 01:30N 48°32' W 122°34'4 8.1
2017-Dec-11 01:00N 48°36' W 122°35'612.2
2017-Dec-11 00:31N 48°40' W 122°42'714.1
2017-Dec-11 00:00N 48°45' W 122°49'713.7
2017-Dec-10 23:30N 48°49' W 122°58'714.1
2017-Dec-10 23:00N 48°53' W 123°06'714.6
2017-Dec-10 22:30N 48°58' W 123°15'713.8
2017-Dec-10 22:00N 49°02' W 123°23'713.6
2017-Dec-10 21:29N 49°10' W 123°23'613.4
2017-Dec-10 21:00N 49°16' W 123°20'612.1
2017-Dec-10 20:30N 49°19' W 123°13'510.8
2017-Dec-10 20:00N 49°18' W 123°05'4 7.4
2017-Dec-10 19:30N 49°18' W 122°59'1 1.7
2017-Dec-10 18:59N 49°17' W 122°58'0 0.0
2017-Dec-10 18:05N 49°17' W 122°58'0 0.0
2017-Dec-10 17:47N 49°17' W 122°58'0 0.0
2017-Dec-10 17:29N 49°17' W 122°58'0 0.0
2017-Dec-10 16:59N 49°17' W 122°58'0 0.0
2017-Dec-10 16:23N 49°17' W 122°58'0 0.0
2017-Dec-10 15:59N 49°17' W 122°58'0 0.0
2017-Dec-10 15:29N 49°17' W 122°58'0 0.0
2017-Dec-10 10:41N 49°17' W 122°58'0 0.0
2017-Dec-10 10:17N 49°17' W 122°58'0 0.0
2017-Dec-10 09:47N 49°17' W 122°58'0 0.0
2017-Dec-10 09:17N 49°17' W 122°58'0 0.0
2017-Dec-10 08:59N 49°17' W 122°58'0 0.0
2017-Dec-10 08:29N 49°17' W 122°58'0 0.0
2017-Dec-10 07:59N 49°17' W 122°58'0 0.0
2017-Dec-10 07:29N 49°17' W 122°58'0 0.0
2017-Dec-10 06:59N 49°17' W 122°58'0 0.0
2017-Dec-10 05:53N 49°17' W 122°58'0 0.0
2017-Dec-10 05:29N 49°17' W 122°58'0 0.0
2017-Dec-10 04:59N 49°17' W 122°58'0 0.0
2017-Dec-10 04:23N 49°17' W 122°58'0 0.0
2017-Dec-10 03:59N 49°17' W 122°58'0 0.0
2017-Dec-10 03:17N 49°17' W 122°58'0 0.0
2017-Dec-10 02:47N 49°17' W 122°58'0 0.0
2017-Dec-10 02:29N 49°17' W 122°58'0 0.1
2017-Dec-10 02:00N 49°17' W 122°58'1 2.7
2017-Dec-10 01:30N 49°18' W 122°60'2 4.6
2017-Dec-10 01:00N 49°18' W 123°03'1 1.2
2017-Dec-10 00:29N 49°18' W 123°04'0 0.0
2017-Dec-09 23:59N 49°18' W 123°04'0 0.0
2017-Dec-09 23:29N 49°18' W 123°04'0 0.0
2017-Dec-09 22:59N 49°18' W 123°04'0 0.0
2017-Dec-09 22:29N 49°18' W 123°04'0 0.0
2017-Dec-09 21:59N 49°18' W 123°04'0 0.0
2017-Dec-09 21:29N 49°18' W 123°04'0 0.0
2017-Dec-09 20:59N 49°18' W 123°04'0 0.1
2017-Dec-09 20:30N 49°18' W 123°04'2 3.2
2017-Dec-09 20:00N 49°18' W 123°07'4 7.2
2017-Dec-09 19:30N 49°19' W 123°12'1 1.5
2017-Dec-09 19:00N 49°19' W 123°13'1 1.9
2017-Dec-09 18:30N 49°19' W 123°12'1 2.9
2017-Dec-09 18:00N 49°19' W 123°14'3 5.5
2017-Dec-09 17:30N 49°17' W 123°18'4 8.9
2017-Dec-09 17:00N 49°13' W 123°19'5 9.3
2017-Dec-09 16:30N 49°08' W 123°20'4 8.6
2017-Dec-09 16:00N 49°04' W 123°20'5 9.4
2017-Dec-09 15:30N 49°01' W 123°15'611.9
2017-Dec-09 15:00N 48°57' W 123°09'712.8
2017-Dec-09 14:30N 48°53' W 123°01'713.2
2017-Dec-09 14:00N 48°49' W 122°53'713.2
2017-Dec-09 13:30N 48°45' W 122°45'612.9
2017-Dec-09 13:00N 48°39' W 122°40'510.7
2017-Dec-09 12:30N 48°35' W 122°35'4 7.3
2017-Dec-09 12:00N 48°31' W 122°35'0 0.5
2017-Dec-09 11:27N 48°31' W 122°35'0 0.0
2017-Dec-09 10:57N 48°31' W 122°35'0 0.0
2017-Dec-09 10:27N 48°31' W 122°35'0 0.0
2017-Dec-09 09:57N 48°31' W 122°35'0 0.0
2017-Dec-09 09:27N 48°31' W 122°35'0 0.0
2017-Dec-09 08:57N 48°31' W 122°35'0 0.0
2017-Dec-09 08:27N 48°31' W 122°35'0 0.0
2017-Dec-09 07:57N 48°31' W 122°35'0 0.0
2017-Dec-09 07:27N 48°31' W 122°35'0 0.0
2017-Dec-09 07:00N 48°31' W 122°35'0 0.0
2017-Dec-09 06:27N 48°31' W 122°35'0 0.0
2017-Dec-09 05:57N 48°31' W 122°35'0 0.0
2017-Dec-09 05:27N 48°31' W 122°35'0 0.0
2017-Dec-09 04:57N 48°31' W 122°35'0 0.0
2017-Dec-09 04:27N 48°31' W 122°35'0 0.0
2017-Dec-09 03:57N 48°31' W 122°35'0 0.1
2017-Dec-09 03:21N 48°31' W 122°35'0 0.1
2017-Dec-09 02:51N 48°31' W 122°35'0 0.1
2017-Dec-09 02:27N 48°31' W 122°35'0 0.0
2017-Dec-09 01:57N 48°31' W 122°35'0 0.1
2017-Dec-09 01:21N 48°31' W 122°35'0 0.0
2017-Dec-09 00:57N 48°31' W 122°35'0 0.1
2017-Dec-09 00:30N 48°31' W 122°35'1 1.0
2017-Dec-08 23:56N 48°31' W 122°35'0 0.0
2017-Dec-08 23:26N 48°31' W 122°35'0 0.0
2017-Dec-08 22:56N 48°31' W 122°35'0 0.0
2017-Dec-08 22:26N 48°31' W 122°35'0 0.0
2017-Dec-08 21:56N 48°31' W 122°35'0 0.0
2017-Dec-08 21:26N 48°31' W 122°35'0 0.0
2017-Dec-08 20:56N 48°31' W 122°35'0 0.0
2017-Dec-08 20:26N 48°31' W 122°35'0 0.0
2017-Dec-08 19:56N 48°31' W 122°35'0 0.0
2017-Dec-08 19:26N 48°31' W 122°35'0 0.0
2017-Dec-08 18:56N 48°31' W 122°35'0 0.0
2017-Dec-08 18:26N 48°31' W 122°35'0 0.0
2017-Dec-08 17:56N 48°31' W 122°35'0 0.0
2017-Dec-08 17:20N 48°31' W 122°35'0 0.0
2017-Dec-08 16:50N 48°31' W 122°35'0 0.0
2017-Dec-08 16:26N 48°31' W 122°35'0 0.0
2017-Dec-08 15:56N 48°31' W 122°35'0 0.0
2017-Dec-08 15:26N 48°31' W 122°35'0 0.0
2017-Dec-08 14:56N 48°31' W 122°35'0 0.0
2017-Dec-08 14:26N 48°31' W 122°35'0 0.0
2017-Dec-08 13:56N 48°31' W 122°35'0 0.0
2017-Dec-08 13:20N 48°31' W 122°35'0 0.0
2017-Dec-08 12:56N 48°31' W 122°35'0 0.0
2017-Dec-08 12:26N 48°31' W 122°35'0 0.0
2017-Dec-08 11:56N 48°31' W 122°35'0 0.0
2017-Dec-08 11:26N 48°31' W 122°35'0 0.0
2017-Dec-08 10:56N 48°31' W 122°35'0 0.0
2017-Dec-08 10:26N 48°31' W 122°35'0 0.0
2017-Dec-08 09:56N 48°31' W 122°35'0 0.0
2017-Dec-08 09:26N 48°31' W 122°35'0 0.0
2017-Dec-08 08:56N 48°31' W 122°35'0 0.0
2017-Dec-08 08:26N 48°31' W 122°35'0 0.0
2017-Dec-08 07:56N 48°31' W 122°35'0 0.0
2017-Dec-08 07:26N 48°31' W 122°35'0 0.0
2017-Dec-08 06:56N 48°31' W 122°35'0 0.0
2017-Dec-08 06:26N 48°31' W 122°35'0 0.0
2017-Dec-08 05:56N 48°31' W 122°35'0 0.0
2017-Dec-08 05:20N 48°31' W 122°35'0 0.0
2017-Dec-08 04:56N 48°31' W 122°35'0 0.0
2017-Dec-08 04:26N 48°31' W 122°35'0 0.0
2017-Dec-08 04:01N 48°31' W 122°35'1 1.3
2017-Dec-08 03:30N 48°31' W 122°35'0 0.1
2017-Dec-08 03:00N 48°31' W 122°35'0 0.1
2017-Dec-08 02:21N 48°31' W 122°35'0 0.0
2017-Dec-08 02:00N 48°31' W 122°35'0 0.0
2017-Dec-08 01:30N 48°31' W 122°35'0 0.1
2017-Dec-08 01:00N 48°31' W 122°35'0 0.0
2017-Dec-08 00:30N 48°31' W 122°35'0 0.1
2017-Dec-08 00:00N 48°31' W 122°35'0 0.1
2017-Dec-07 23:30N 48°31' W 122°35'0 0.0
2017-Dec-07 22:54N 48°31' W 122°35'0 0.0
2017-Dec-07 22:30N 48°31' W 122°35'0 0.0
2017-Dec-07 21:48N 48°31' W 122°35'0 0.0
2017-Dec-07 21:30N 48°31' W 122°35'0 0.0
2017-Dec-07 21:00N 48°31' W 122°35'0 0.0
2017-Dec-07 20:18N 48°31' W 122°35'0 0.1
2017-Dec-07 20:00N 48°31' W 122°35'0 0.0
2017-Dec-07 19:30N 48°31' W 122°35'0 0.1
2017-Dec-07 19:00N 48°31' W 122°35'0 0.1
2017-Dec-07 18:30N 48°31' W 122°35'0 0.1
2017-Dec-07 18:00N 48°31' W 122°35'0 0.1
2017-Dec-07 17:24N 48°31' W 122°35'0 0.0
2017-Dec-07 17:00N 48°31' W 122°35'0 0.0
2017-Dec-07 16:30N 48°31' W 122°35'0 0.0
2017-Dec-07 16:00N 48°31' W 122°35'0 0.0
2017-Dec-07 15:24N 48°31' W 122°35'0 0.0
2017-Dec-07 15:00N 48°31' W 122°35'0 0.1
2017-Dec-07 14:30N 48°31' W 122°35'0 0.1
2017-Dec-07 14:00N 48°31' W 122°35'0 0.2
2017-Dec-07 13:30N 48°31' W 122°35'0 0.2
2017-Dec-07 13:00N 48°31' W 122°35'0 0.1
2017-Dec-07 12:24N 48°31' W 122°35'0 0.1
2017-Dec-07 12:00N 48°31' W 122°35'0 0.0
2017-Dec-07 11:30N 48°31' W 122°35'0 0.0
2017-Dec-07 11:00N 48°31' W 122°35'0 0.0
2017-Dec-07 10:30N 48°31' W 122°35'0 0.0
2017-Dec-07 10:00N 48°31' W 122°35'0 0.2
2017-Dec-07 09:30N 48°31' W 122°35'0 0.0
2017-Dec-07 09:00N 48°31' W 122°35'0 0.1
2017-Dec-07 08:30N 48°31' W 122°35'0 0.0
2017-Dec-07 08:00N 48°31' W 122°35'0 0.0
2017-Dec-07 07:30N 48°31' W 122°35'0 0.0
2017-Dec-07 07:00N 48°31' W 122°35'0 0.0
2017-Dec-07 06:30N 48°31' W 122°35'0 0.0
2017-Dec-07 06:00N 48°31' W 122°35'0 0.0
2017-Dec-07 05:30N 48°31' W 122°35'0 0.0
2017-Dec-07 05:00N 48°31' W 122°35'0 0.0
2017-Dec-07 04:18N 48°31' W 122°35'0 0.4
2017-Dec-07 04:00N 48°31' W 122°35'1 1.0
2017-Dec-07 03:30N 48°32' W 122°34'5 9.0
2017-Dec-07 03:00N 48°36' W 122°35'612.5
2017-Dec-07 02:30N 48°40' W 122°43'714.5
2017-Dec-07 02:00N 48°46' W 122°49'714.8
2017-Dec-07 01:30N 48°49' W 122°59'714.3
2017-Dec-07 01:01N 48°54' W 123°08'714.1
2017-Dec-07 00:30N 48°59' W 123°16'713.8
2017-Dec-07 00:00N 49°03' W 123°23'713.6
2017-Dec-06 23:30N 49°10' W 123°22'713.7
2017-Dec-06 23:00N 49°17' W 123°20'612.5
2017-Dec-06 22:30N 49°19' W 123°11'5 9.5
2017-Dec-06 22:01N 49°18' W 123°04'3 6.5
2017-Dec-06 21:30N 49°18' W 122°59'1 1.5
2017-Dec-06 21:00N 49°18' W 122°58'  
2017-Dec-04 09:33N 48°31' W 122°35'0 0.0
2017-Dec-04 09:27N 48°31' W 122°35'0 0.0
2017-Dec-04 08:57N 48°31' W 122°35'0 0.0
2017-Dec-04 07:15N 48°31' W 122°35'0 0.0
2017-Dec-04 06:57N 48°31' W 122°35'0 0.0
2017-Dec-04 06:27N 48°31' W 122°35'0 0.0
2017-Dec-04 05:57N 48°31' W 122°35'0 0.0
2017-Dec-04 05:15N 48°31' W 122°35'0 0.0
2017-Dec-04 04:57N 48°31' W 122°35'0 0.0
2017-Dec-04 04:27N 48°31' W 122°35'0 0.0
2017-Dec-04 03:51N 48°31' W 122°35'0 0.0
2017-Dec-04 03:27N 48°31' W 122°35'0 0.0
2017-Dec-04 02:57N 48°31' W 122°35'0 0.0
2017-Dec-04 02:15N 48°31' W 122°35'0 0.0
2017-Dec-04 01:57N 48°31' W 122°35'0 0.0
2017-Dec-04 01:27N 48°31' W 122°35'0 0.0
2017-Dec-04 00:57N 48°31' W 122°35'0 0.0
2017-Dec-04 00:21N 48°31' W 122°35'0 0.0
2017-Dec-03 23:57N 48°31' W 122°35'0 0.0
2017-Dec-03 23:27N 48°31' W 122°35'0 0.0
2017-Dec-03 22:57N 48°31' W 122°35'0 0.0
2017-Dec-03 22:27N 48°31' W 122°35'0 0.0
2017-Dec-03 21:51N 48°31' W 122°35'0 0.0
2017-Dec-03 21:27N 48°31' W 122°35'0 0.0
2017-Dec-03 20:57N 48°31' W 122°35'0 0.0
2017-Dec-03 20:27N 48°31' W 122°35'0 0.0
2017-Dec-03 19:57N 48°31' W 122°35'0 0.0
2017-Dec-03 19:27N 48°31' W 122°35'0 0.0
2017-Dec-03 18:57N 48°31' W 122°35'0 0.0
2017-Dec-03 18:27N 48°31' W 122°35'0 0.0
2017-Dec-03 17:57N 48°31' W 122°35'0 0.0
2017-Dec-03 17:27N 48°31' W 122°35'0 0.0
2017-Dec-03 16:51N 48°31' W 122°35'0 0.0
2017-Dec-03 16:03N 48°31' W 122°35'0 0.0
2017-Dec-03 15:39N 48°31' W 122°35'0 0.0
2017-Dec-03 15:21N 48°31' W 122°35'0 0.0
2017-Dec-03 14:57N 48°31' W 122°35'0 0.0
2017-Dec-03 14:27N 48°31' W 122°35'0 0.2
2017-Dec-03 14:00N 48°31' W 122°35'2 3.5
2017-Dec-03 13:31N 48°32' W 122°34'5 9.1
2017-Dec-03 13:01N 48°37' W 122°35'612.5
2017-Dec-03 12:31N 48°40' W 122°43'510.6
2017-Dec-03 12:00N 48°45' W 122°48'612.7
2017-Dec-03 11:30N 48°48' W 122°56'612.3
2017-Dec-03 11:00N 48°52' W 123°03'612.3
2017-Dec-03 10:30N 48°56' W 123°10'713.0
2017-Dec-03 10:00N 49°00' W 123°18'612.7
2017-Dec-03 09:30N 49°05' W 123°23'713.9
2017-Dec-03 09:00N 49°12' W 123°21'713.6
2017-Dec-03 08:30N 49°19' W 123°17'612.1
2017-Dec-03 08:00N 49°19' W 123°08'4 7.9
2017-Dec-03 07:30N 49°18' W 123°02'2 4.6
2017-Dec-03 07:01N 49°18' W 122°59'0 0.4
2017-Dec-03 06:14N 49°18' W 122°58'0 0.1
2017-Dec-03 05:59N 49°18' W 122°58'0 0.1
2017-Dec-03 05:20N 49°18' W 122°58'0 0.1
2017-Dec-03 04:59N 49°18' W 122°58'0 0.0
2017-Dec-03 04:29N 49°18' W 122°58'0 0.0
2017-Dec-03 03:53N 49°18' W 122°58'0 0.0
2017-Dec-03 03:17N 49°18' W 122°58'0 0.0
2017-Dec-03 02:53N 49°18' W 122°58'0 0.0
2017-Dec-03 02:29N 49°18' W 122°58'0 0.0
2017-Dec-03 01:56N 49°18' W 122°58'0 0.0
2017-Dec-03 01:29N 49°18' W 122°58'0 0.0
2017-Dec-03 00:47N 49°18' W 122°58'0 0.2
2017-Dec-03 00:23N 49°18' W 122°58'0 0.0
2017-Dec-02 14:29N 49°17' W 122°58'0 0.0
2017-Dec-02 08:23N 49°17' W 122°58'0 0.0
2017-Dec-02 07:59N 49°17' W 122°58'0 0.0
2017-Dec-02 07:23N 49°17' W 122°58'0 0.0
2017-Dec-02 06:59N 49°17' W 122°58'0 0.0
2017-Dec-02 05:47N 49°17' W 122°58'0 0.0
2017-Dec-02 02:05N 49°17' W 122°58'0 0.1
2017-Dec-02 02:00N 49°17' W 122°58'0 0.6
2017-Dec-02 01:24N 49°18' W 122°58'0 0.0
2017-Dec-02 01:00N 49°18' W 122°58'0 0.0
2017-Dec-02 00:30N 49°18' W 122°58'0 0.1
2017-Dec-01 23:54N 49°18' W 122°58'1 1.7
2017-Dec-01 23:30N 49°18' W 122°59'3 5.2
2017-Dec-01 23:00N 49°18' W 123°03'4 7.2
2017-Dec-01 22:30N 49°19' W 123°08'4 7.3
2017-Dec-01 22:00N 49°18' W 123°14'4 7.5
2017-Dec-01 21:30N 49°16' W 123°19'3 6.3
2017-Dec-01 21:01N 49°13' W 123°20'4 7.7
2017-Dec-01 20:30N 49°09' W 123°21'4 7.4
2017-Dec-01 20:00N 49°06' W 123°22'510.3
2017-Dec-01 19:30N 49°02' W 123°17'612.6
2017-Dec-01 19:00N 48°57' W 123°10'612.7
2017-Dec-01 18:30N 48°54' W 123°03'612.4
2017-Dec-01 18:00N 48°49' W 122°55'713.0
2017-Dec-01 17:30N 48°46' W 122°47'613.3
2017-Dec-01 17:00N 48°40' W 122°42'  

Dump ship's entire track history